Bad Nation, South Dakota
Current Conditions -  °F | °C
As of 4:53 PM on Sunday 21 Dec 2014 (Local Time) from KICR Reporting Station
Clear Clear  
Wind Chill: 33°   Ceiling: Unl
Heat Index: 42°   Visibility: 10mi
Dew Point: 31°   Wind: 20mph
Humidity: 65%   Direction: 190°S
Pressure: 29.4"   Gusts: NA
Location:  43.5595°N, 100.408°W
Report Text: KICR 212253Z AUTO 19017KT 10SM CLR 06/M01 A2940 RMK AO2 SLP965 T00561006
Loading
Personal Weather Stations






























Interactive Weather Map New forecast layout! Learn more

10-Day Weather Forecast

Advertisements
Track Severe Weather on mobile